sensor_id;sensor_type;location;lat;lon;timestamp;P1;durP1;ratioP1;P2;durP2;ratioP2
4525;SDS011;2275;52.208;8.804;2022-12-18T00:00:42;194.87;;;86.70;;
4525;SDS011;2275;52.208;8.804;2022-12-18T00:03:09;204.98;;;83.85;;
4525;SDS011;2275;52.208;8.804;2022-12-18T00:05:36;193.80;;;83.70;;
4525;SDS011;2275;52.208;8.804;2022-12-18T00:08:03;191.98;;;84.65;;
4525;SDS011;2275;52.208;8.804;2022-12-18T00:10:30;204.43;;;85.07;;
4525;SDS011;2275;52.208;8.804;2022-12-18T00:12:57;191.95;;;80.75;;
4525;SDS011;2275;52.208;8.804;2022-12-18T00:15:24;193.37;;;83.20;;
4525;SDS011;2275;52.208;8.804;2022-12-18T00:17:51;186.25;;;84.95;;
4525;SDS011;2275;52.208;8.804;2022-12-18T00:20:19;210.75;;;86.43;;
4525;SDS011;2275;52.208;8.804;2022-12-18T00:22:46;205.75;;;86.35;;
4525;SDS011;2275;52.208;8.804;2022-12-18T00:25:13;199.35;;;83.72;;
4525;SDS011;2275;52.208;8.804;2022-12-18T00:27:40;196.98;;;84.55;;
4525;SDS011;2275;52.208;8.804;2022-12-18T00:30:07;192.93;;;84.45;;
4525;SDS011;2275;52.208;8.804;2022-12-18T00:32:35;191.77;;;78.93;;
4525;SDS011;2275;52.208;8.804;2022-12-18T00:35:02;189.70;;;81.78;;
4525;SDS011;2275;52.208;8.804;2022-12-18T00:37:30;192.30;;;83.05;;
4525;SDS011;2275;52.208;8.804;2022-12-18T00:39:57;192.27;;;85.70;;
4525;SDS011;2275;52.208;8.804;2022-12-18T00:42:24;205.73;;;84.75;;
4525;SDS011;2275;52.208;8.804;2022-12-18T00:44:56;191.93;;;83.15;;
4525;SDS011;2275;52.208;8.804;2022-12-18T00:47:25;200.00;;;81.97;;
4525;SDS011;2275;52.208;8.804;2022-12-18T00:49:52;200.77;;;85.00;;
4525;SDS011;2275;52.208;8.804;2022-12-18T00:52:18;195.68;;;81.63;;
4525;SDS011;2275;52.208;8.804;2022-12-18T00:54:45;186.62;;;78.20;;
4525;SDS011;2275;52.208;8.804;2022-12-18T00:57:12;181.40;;;82.88;;
4525;SDS011;2275;52.208;8.804;2022-12-18T00:59:39;196.55;;;82.53;;
4525;SDS011;2275;52.208;8.804;2022-12-18T01:02:06;181.18;;;79.80;;
4525;SDS011;2275;52.208;8.804;2022-12-18T01:04:33;207.60;;;85.53;;
4525;SDS011;2275;52.208;8.804;2022-12-18T01:07:00;195.50;;;84.37;;
4525;SDS011;2275;52.208;8.804;2022-12-18T01:09:27;195.25;;;81.20;;
4525;SDS011;2275;52.208;8.804;2022-12-18T01:11:54;196.95;;;85.28;;
4525;SDS011;2275;52.208;8.804;2022-12-18T01:14:21;186.00;;;81.57;;
4525;SDS011;2275;52.208;8.804;2022-12-18T01:16:48;195.98;;;85.10;;
4525;SDS011;2275;52.208;8.804;2022-12-18T01:19:15;207.90;;;79.68;;
4525;SDS011;2275;52.208;8.804;2022-12-18T01:21:42;187.48;;;82.57;;
4525;SDS011;2275;52.208;8.804;2022-12-18T01:24:10;201.05;;;84.62;;
4525;SDS011;2275;52.208;8.804;2022-12-18T01:26:36;196.40;;;81.72;;
4525;SDS011;2275;52.208;8.804;2022-12-18T01:29:03;187.15;;;80.10;;
4525;SDS011;2275;52.208;8.804;2022-12-18T01:31:32;193.07;;;85.12;;
4525;SDS011;2275;52.208;8.804;2022-12-18T01:33:57;196.35;;;82.80;;
4525;SDS011;2275;52.208;8.804;2022-12-18T01:36:25;183.48;;;80.93;;
4525;SDS011;2275;52.208;8.804;2022-12-18T01:38:51;195.18;;;82.68;;
4525;SDS011;2275;52.208;8.804;2022-12-18T01:41:20;186.35;;;77.35;;
4525;SDS011;2275;52.208;8.804;2022-12-18T01:46:27;189.65;;;78.53;;
4525;SDS011;2275;52.208;8.804;2022-12-18T01:48:57;169.30;;;72.75;;
4525;SDS011;2275;52.208;8.804;2022-12-18T01:51:24;170.38;;;74.70;;
4525;SDS011;2275;52.208;8.804;2022-12-18T01:53:50;175.77;;;73.78;;
4525;SDS011;2275;52.208;8.804;2022-12-18T01:56:18;178.30;;;76.10;;
4525;SDS011;2275;52.208;8.804;2022-12-18T01:58:50;169.77;;;73.45;;
4525;SDS011;2275;52.208;8.804;2022-12-18T02:01:15;179.73;;;77.30;;
4525;SDS011;2275;52.208;8.804;2022-12-18T02:03:42;180.50;;;75.93;;
4525;SDS011;2275;52.208;8.804;2022-12-18T02:06:13;166.18;;;75.47;;
4525;SDS011;2275;52.208;8.804;2022-12-18T02:08:41;172.62;;;76.70;;
4525;SDS011;2275;52.208;8.804;2022-12-18T02:11:24;158.70;;;66.10;;
4525;SDS011;2275;52.208;8.804;2022-12-18T02:14:00;183.75;;;76.25;;
4525;SDS011;2275;52.208;8.804;2022-12-18T02:16:43;184.20;;;76.28;;
4525;SDS011;2275;52.208;8.804;2022-12-18T02:22:00;173.02;;;75.85;;
4525;SDS011;2275;52.208;8.804;2022-12-18T02:24:40;175.90;;;76.22;;
4525;SDS011;2275;52.208;8.804;2022-12-18T02:27:05;178.12;;;75.97;;
4525;SDS011;2275;52.208;8.804;2022-12-18T02:29:49;177.50;;;79.55;;
4525;SDS011;2275;52.208;8.804;2022-12-18T02:32:15;176.57;;;76.00;;
4525;SDS011;2275;52.208;8.804;2022-12-18T02:34:42;171.95;;;74.22;;
4525;SDS011;2275;52.208;8.804;2022-12-18T02:37:11;166.93;;;71.60;;
4525;SDS011;2275;52.208;8.804;2022-12-18T02:39:37;174.25;;;73.65;;
4525;SDS011;2275;52.208;8.804;2022-12-18T02:42:04;163.75;;;71.00;;
4525;SDS011;2275;52.208;8.804;2022-12-18T02:47:08;159.30;;;66.78;;
4525;SDS011;2275;52.208;8.804;2022-12-18T02:49:36;162.93;;;68.80;;
4525;SDS011;2275;52.208;8.804;2022-12-18T02:52:25;170.73;;;70.37;;
4525;SDS011;2275;52.208;8.804;2022-12-18T02:55:13;164.18;;;69.32;;
4525;SDS011;2275;52.208;8.804;2022-12-18T02:57:58;162.95;;;70.47;;
4525;SDS011;2275;52.208;8.804;2022-12-18T03:00:28;170.32;;;74.60;;
4525;SDS011;2275;52.208;8.804;2022-12-18T03:02:57;166.23;;;70.70;;
4525;SDS011;2275;52.208;8.804;2022-12-18T03:05:28;170.68;;;72.15;;
4525;SDS011;2275;52.208;8.804;2022-12-18T03:08:03;162.55;;;68.53;;
4525;SDS011;2275;52.208;8.804;2022-12-18T03:10:32;157.20;;;67.18;;
4525;SDS011;2275;52.208;8.804;2022-12-18T03:13:02;173.02;;;71.25;;
4525;SDS011;2275;52.208;8.804;2022-12-18T03:15:34;172.00;;;69.80;;
4525;SDS011;2275;52.208;8.804;2022-12-18T03:18:04;164.13;;;70.70;;
4525;SDS011;2275;52.208;8.804;2022-12-18T03:20:31;159.10;;;67.95;;
4525;SDS011;2275;52.208;8.804;2022-12-18T03:22:59;165.27;;;66.10;;
4525;SDS011;2275;52.208;8.804;2022-12-18T03:25:26;161.52;;;66.40;;
4525;SDS011;2275;52.208;8.804;2022-12-18T03:27:54;152.57;;;65.57;;
4525;SDS011;2275;52.208;8.804;2022-12-18T03:30:21;160.25;;;68.00;;
4525;SDS011;2275;52.208;8.804;2022-12-18T03:32:50;151.82;;;66.97;;
4525;SDS011;2275;52.208;8.804;2022-12-18T03:35:20;159.20;;;64.35;;
4525;SDS011;2275;52.208;8.804;2022-12-18T03:37:45;161.35;;;65.15;;
4525;SDS011;2275;52.208;8.804;2022-12-18T03:40:12;149.52;;;62.13;;
4525;SDS011;2275;52.208;8.804;2022-12-18T03:42:48;141.77;;;60.95;;
4525;SDS011;2275;52.208;8.804;2022-12-18T03:45:18;151.32;;;61.42;;
4525;SDS011;2275;52.208;8.804;2022-12-18T03:48:08;135.82;;;60.17;;
4525;SDS011;2275;52.208;8.804;2022-12-18T03:50:46;145.85;;;61.50;;
4525;SDS011;2275;52.208;8.804;2022-12-18T03:55:59;143.00;;;63.53;;
4525;SDS011;2275;52.208;8.804;2022-12-18T03:58:26;154.02;;;62.88;;
4525;SDS011;2275;52.208;8.804;2022-12-18T04:00:53;166.52;;;64.30;;
4525;SDS011;2275;52.208;8.804;2022-12-18T04:03:20;139.88;;;60.83;;
4525;SDS011;2275;52.208;8.804;2022-12-18T04:05:48;145.05;;;61.40;;
4525;SDS011;2275;52.208;8.804;2022-12-18T04:08:14;143.48;;;59.42;;
4525;SDS011;2275;52.208;8.804;2022-12-18T04:10:41;159.10;;;62.85;;
4525;SDS011;2275;52.208;8.804;2022-12-18T04:13:08;142.82;;;59.33;;
4525;SDS011;2275;52.208;8.804;2022-12-18T04:15:35;141.70;;;61.35;;
4525;SDS011;2275;52.208;8.804;2022-12-18T04:18:02;133.80;;;54.25;;
4525;SDS011;2275;52.208;8.804;2022-12-18T04:20:29;147.02;;;60.70;;
4525;SDS011;2275;52.208;8.804;2022-12-18T04:22:56;143.80;;;60.25;;
4525;SDS011;2275;52.208;8.804;2022-12-18T04:25:23;142.55;;;58.60;;
4525;SDS011;2275;52.208;8.804;2022-12-18T04:27:50;142.68;;;56.53;;
4525;SDS011;2275;52.208;8.804;2022-12-18T04:30:17;138.85;;;58.40;;
4525;SDS011;2275;52.208;8.804;2022-12-18T04:32:44;129.87;;;57.13;;
4525;SDS011;2275;52.208;8.804;2022-12-18T04:35:12;138.60;;;57.53;;
4525;SDS011;2275;52.208;8.804;2022-12-18T04:37:41;144.10;;;57.22;;
4525;SDS011;2275;52.208;8.804;2022-12-18T04:40:12;133.05;;;58.03;;
4525;SDS011;2275;52.208;8.804;2022-12-18T04:42:39;137.20;;;57.72;;
4525;SDS011;2275;52.208;8.804;2022-12-18T04:45:06;131.07;;;56.70;;
4525;SDS011;2275;52.208;8.804;2022-12-18T04:47:34;132.77;;;55.08;;
4525;SDS011;2275;52.208;8.804;2022-12-18T04:50:00;130.07;;;55.85;;
4525;SDS011;2275;52.208;8.804;2022-12-18T04:52:31;123.22;;;54.00;;
4525;SDS011;2275;52.208;8.804;2022-12-18T04:54:58;120.80;;;49.78;;
4525;SDS011;2275;52.208;8.804;2022-12-18T04:57:25;129.30;;;54.65;;
4525;SDS011;2275;52.208;8.804;2022-12-18T04:59:52;119.40;;;49.63;;
4525;SDS011;2275;52.208;8.804;2022-12-18T05:02:19;103.25;;;44.63;;
4525;SDS011;2275;52.208;8.804;2022-12-18T05:04:46;110.72;;;48.13;;
4525;SDS011;2275;52.208;8.804;2022-12-18T05:07:13;128.48;;;52.70;;
4525;SDS011;2275;52.208;8.804;2022-12-18T05:09:41;125.40;;;52.50;;
4525;SDS011;2275;52.208;8.804;2022-12-18T05:12:08;122.45;;;53.15;;
4525;SDS011;2275;52.208;8.804;2022-12-18T05:14:35;124.82;;;52.85;;
4525;SDS011;2275;52.208;8.804;2022-12-18T05:17:02;123.47;;;51.47;;
4525;SDS011;2275;52.208;8.804;2022-12-18T05:19:29;125.18;;;50.92;;
4525;SDS011;2275;52.208;8.804;2022-12-18T05:21:56;133.37;;;53.80;;
4525;SDS011;2275;52.208;8.804;2022-12-18T05:24:23;119.22;;;53.00;;
4525;SDS011;2275;52.208;8.804;2022-12-18T05:26:50;135.10;;;55.33;;
4525;SDS011;2275;52.208;8.804;2022-12-18T05:29:17;132.90;;;53.50;;
4525;SDS011;2275;52.208;8.804;2022-12-18T05:31:44;128.10;;;52.35;;
4525;SDS011;2275;52.208;8.804;2022-12-18T05:34:11;119.80;;;53.17;;
4525;SDS011;2275;52.208;8.804;2022-12-18T05:36:38;122.93;;;51.78;;
4525;SDS011;2275;52.208;8.804;2022-12-18T05:39:05;118.22;;;52.85;;
4525;SDS011;2275;52.208;8.804;2022-12-18T05:41:32;114.35;;;51.08;;
4525;SDS011;2275;52.208;8.804;2022-12-18T05:43:59;121.82;;;49.92;;
4525;SDS011;2275;52.208;8.804;2022-12-18T05:46:26;126.12;;;50.70;;
4525;SDS011;2275;52.208;8.804;2022-12-18T05:48:53;124.75;;;51.05;;
4525;SDS011;2275;52.208;8.804;2022-12-18T05:51:20;122.90;;;50.05;;
4525;SDS011;2275;52.208;8.804;2022-12-18T05:53:47;117.53;;;49.60;;
4525;SDS011;2275;52.208;8.804;2022-12-18T05:56:16;110.85;;;49.13;;
4525;SDS011;2275;52.208;8.804;2022-12-18T05:58:42;106.53;;;48.65;;
4525;SDS011;2275;52.208;8.804;2022-12-18T06:01:10;113.45;;;50.30;;
4525;SDS011;2275;52.208;8.804;2022-12-18T06:03:45;115.22;;;49.30;;
4525;SDS011;2275;52.208;8.804;2022-12-18T06:06:15;112.22;;;48.47;;
4525;SDS011;2275;52.208;8.804;2022-12-18T06:08:41;119.25;;;47.92;;
4525;SDS011;2275;52.208;8.804;2022-12-18T06:11:08;124.12;;;49.50;;
4525;SDS011;2275;52.208;8.804;2022-12-18T06:13:35;115.15;;;49.85;;
4525;SDS011;2275;52.208;8.804;2022-12-18T06:16:03;124.72;;;50.40;;
4525;SDS011;2275;52.208;8.804;2022-12-18T06:18:29;113.45;;;49.17;;
4525;SDS011;2275;52.208;8.804;2022-12-18T06:20:56;118.22;;;49.35;;
4525;SDS011;2275;52.208;8.804;2022-12-18T06:23:23;116.30;;;48.90;;
4525;SDS011;2275;52.208;8.804;2022-12-18T06:25:51;108.05;;;49.33;;
4525;SDS011;2275;52.208;8.804;2022-12-18T06:28:17;108.87;;;45.95;;
4525;SDS011;2275;52.208;8.804;2022-12-18T06:30:46;104.28;;;42.80;;
4525;SDS011;2275;52.208;8.804;2022-12-18T06:33:13;100.50;;;43.30;;
4525;SDS011;2275;52.208;8.804;2022-12-18T06:35:40;108.55;;;47.62;;
4525;SDS011;2275;52.208;8.804;2022-12-18T06:38:07;113.22;;;45.75;;
4525;SDS011;2275;52.208;8.804;2022-12-18T06:40:35;98.65;;;44.70;;
4525;SDS011;2275;52.208;8.804;2022-12-18T06:43:01;109.70;;;45.65;;
4525;SDS011;2275;52.208;8.804;2022-12-18T06:45:28;102.78;;;44.60;;
4525;SDS011;2275;52.208;8.804;2022-12-18T06:47:55;102.70;;;45.00;;
4525;SDS011;2275;52.208;8.804;2022-12-18T06:50:22;108.60;;;45.53;;
4525;SDS011;2275;52.208;8.804;2022-12-18T06:52:49;98.55;;;42.75;;
4525;SDS011;2275;52.208;8.804;2022-12-18T06:55:16;93.65;;;42.28;;
4525;SDS011;2275;52.208;8.804;2022-12-18T06:57:44;101.65;;;43.17;;
4525;SDS011;2275;52.208;8.804;2022-12-18T07:00:11;98.72;;;42.45;;
4525;SDS011;2275;52.208;8.804;2022-12-18T07:02:38;80.95;;;37.45;;
4525;SDS011;2275;52.208;8.804;2022-12-18T07:05:05;90.87;;;39.58;;
4525;SDS011;2275;52.208;8.804;2022-12-18T07:07:33;86.70;;;38.60;;
4525;SDS011;2275;52.208;8.804;2022-12-18T07:10:01;94.43;;;37.35;;
4525;SDS011;2275;52.208;8.804;2022-12-18T07:12:28;83.28;;;36.85;;
4525;SDS011;2275;52.208;8.804;2022-12-18T07:14:55;82.35;;;35.50;;
4525;SDS011;2275;52.208;8.804;2022-12-18T07:17:22;82.60;;;36.03;;
4525;SDS011;2275;52.208;8.804;2022-12-18T07:19:50;83.40;;;35.45;;
4525;SDS011;2275;52.208;8.804;2022-12-18T07:22:16;76.45;;;34.40;;
4525;SDS011;2275;52.208;8.804;2022-12-18T07:24:43;76.10;;;31.37;;
4525;SDS011;2275;52.208;8.804;2022-12-18T07:27:10;72.93;;;32.20;;
4525;SDS011;2275;52.208;8.804;2022-12-18T07:29:38;79.22;;;33.90;;
4525;SDS011;2275;52.208;8.804;2022-12-18T07:32:04;68.43;;;30.25;;
4525;SDS011;2275;52.208;8.804;2022-12-18T07:34:31;76.05;;;33.55;;
4525;SDS011;2275;52.208;8.804;2022-12-18T07:36:59;68.22;;;32.40;;
4525;SDS011;2275;52.208;8.804;2022-12-18T07:39:26;66.03;;;30.73;;
4525;SDS011;2275;52.208;8.804;2022-12-18T07:41:52;59.42;;;29.15;;
4525;SDS011;2275;52.208;8.804;2022-12-18T07:44:25;55.72;;;28.25;;
4525;SDS011;2275;52.208;8.804;2022-12-18T07:46:52;54.47;;;25.45;;
4525;SDS011;2275;52.208;8.804;2022-12-18T07:49:19;56.13;;;24.73;;
4525;SDS011;2275;52.208;8.804;2022-12-18T07:51:46;57.53;;;27.00;;
4525;SDS011;2275;52.208;8.804;2022-12-18T07:54:14;52.88;;;27.75;;
4525;SDS011;2275;52.208;8.804;2022-12-18T07:56:40;54.22;;;24.58;;
4525;SDS011;2275;52.208;8.804;2022-12-18T07:59:09;56.97;;;24.27;;
4525;SDS011;2275;52.208;8.804;2022-12-18T08:01:36;53.75;;;26.17;;
4525;SDS011;2275;52.208;8.804;2022-12-18T08:04:03;52.92;;;25.52;;
4525;SDS011;2275;52.208;8.804;2022-12-18T08:06:30;53.58;;;24.00;;
4525;SDS011;2275;52.208;8.804;2022-12-18T08:08:57;50.75;;;21.45;;
4525;SDS011;2275;52.208;8.804;2022-12-18T08:11:25;46.28;;;20.77;;
4525;SDS011;2275;52.208;8.804;2022-12-18T08:13:51;51.25;;;21.67;;
4525;SDS011;2275;52.208;8.804;2022-12-18T08:16:19;62.65;;;31.20;;
4525;SDS011;2275;52.208;8.804;2022-12-18T08:18:46;64.45;;;29.75;;
4525;SDS011;2275;52.208;8.804;2022-12-18T08:21:14;65.00;;;32.10;;
4525;SDS011;2275;52.208;8.804;2022-12-18T08:23:41;59.65;;;28.05;;
4525;SDS011;2275;52.208;8.804;2022-12-18T08:26:09;66.85;;;29.12;;
4525;SDS011;2275;52.208;8.804;2022-12-18T08:28:35;82.90;;;33.30;;
4525;SDS011;2275;52.208;8.804;2022-12-18T08:31:03;69.03;;;30.17;;
4525;SDS011;2275;52.208;8.804;2022-12-18T08:33:30;67.20;;;29.90;;
4525;SDS011;2275;52.208;8.804;2022-12-18T08:35:58;62.05;;;29.95;;
4525;SDS011;2275;52.208;8.804;2022-12-18T08:38:25;67.68;;;28.95;;
4525;SDS011;2275;52.208;8.804;2022-12-18T08:40:59;66.22;;;29.80;;
4525;SDS011;2275;52.208;8.804;2022-12-18T08:43:26;73.00;;;31.33;;
4525;SDS011;2275;52.208;8.804;2022-12-18T08:45:58;61.28;;;29.25;;
4525;SDS011;2275;52.208;8.804;2022-12-18T08:48:26;59.15;;;28.58;;
4525;SDS011;2275;52.208;8.804;2022-12-18T08:50:57;62.78;;;25.90;;
4525;SDS011;2275;52.208;8.804;2022-12-18T08:53:24;51.35;;;24.30;;
4525;SDS011;2275;52.208;8.804;2022-12-18T08:55:52;47.90;;;22.15;;
4525;SDS011;2275;52.208;8.804;2022-12-18T08:58:19;43.38;;;20.90;;
4525;SDS011;2275;52.208;8.804;2022-12-18T09:00:46;57.25;;;24.67;;
4525;SDS011;2275;52.208;8.804;2022-12-18T09:03:14;54.63;;;24.73;;
4525;SDS011;2275;52.208;8.804;2022-12-18T09:05:41;51.60;;;24.35;;
4525;SDS011;2275;52.208;8.804;2022-12-18T09:08:08;58.13;;;27.25;;
4525;SDS011;2275;52.208;8.804;2022-12-18T09:10:40;60.88;;;28.12;;
4525;SDS011;2275;52.208;8.804;2022-12-18T09:13:03;60.33;;;27.25;;
4525;SDS011;2275;52.208;8.804;2022-12-18T09:15:30;55.53;;;24.92;;
4525;SDS011;2275;52.208;8.804;2022-12-18T09:17:57;53.00;;;24.17;;
4525;SDS011;2275;52.208;8.804;2022-12-18T09:20:24;55.67;;;25.02;;
4525;SDS011;2275;52.208;8.804;2022-12-18T09:22:51;44.58;;;20.55;;
4525;SDS011;2275;52.208;8.804;2022-12-18T09:25:18;45.25;;;19.73;;
4525;SDS011;2275;52.208;8.804;2022-12-18T09:27:46;43.50;;;20.17;;
4525;SDS011;2275;52.208;8.804;2022-12-18T09:30:12;41.65;;;21.15;;
4525;SDS011;2275;52.208;8.804;2022-12-18T09:32:40;46.08;;;22.58;;
4525;SDS011;2275;52.208;8.804;2022-12-18T09:35:07;50.12;;;22.37;;
4525;SDS011;2275;52.208;8.804;2022-12-18T09:37:34;68.80;;;31.35;;
4525;SDS011;2275;52.208;8.804;2022-12-18T09:40:01;67.18;;;29.85;;
4525;SDS011;2275;52.208;8.804;2022-12-18T09:42:28;59.90;;;30.83;;
4525;SDS011;2275;52.208;8.804;2022-12-18T09:44:55;71.82;;;30.02;;
4525;SDS011;2275;52.208;8.804;2022-12-18T09:47:24;59.00;;;27.85;;
4525;SDS011;2275;52.208;8.804;2022-12-18T09:49:58;70.93;;;31.83;;
4525;SDS011;2275;52.208;8.804;2022-12-18T09:52:26;72.20;;;31.52;;
4525;SDS011;2275;52.208;8.804;2022-12-18T09:54:53;73.60;;;32.13;;
4525;SDS011;2275;52.208;8.804;2022-12-18T09:57:21;60.55;;;27.33;;
4525;SDS011;2275;52.208;8.804;2022-12-18T09:59:49;59.83;;;27.92;;
4525;SDS011;2275;52.208;8.804;2022-12-18T10:02:18;48.72;;;21.77;;
4525;SDS011;2275;52.208;8.804;2022-12-18T10:04:45;47.70;;;22.52;;
4525;SDS011;2275;52.208;8.804;2022-12-18T10:07:15;57.53;;;25.15;;
4525;SDS011;2275;52.208;8.804;2022-12-18T10:09:53;61.05;;;26.92;;
4525;SDS011;2275;52.208;8.804;2022-12-18T10:12:22;49.08;;;22.87;;
4525;SDS011;2275;52.208;8.804;2022-12-18T10:17:48;38.05;;;18.20;;
4525;SDS011;2275;52.208;8.804;2022-12-18T10:20:32;36.33;;;17.23;;
4525;SDS011;2275;52.208;8.804;2022-12-18T10:23:01;37.47;;;18.25;;
4525;SDS011;2275;52.208;8.804;2022-12-18T10:25:34;42.85;;;19.40;;
4525;SDS011;2275;52.208;8.804;2022-12-18T10:28:07;42.75;;;19.80;;
4525;SDS011;2275;52.208;8.804;2022-12-18T10:30:33;32.28;;;17.15;;
4525;SDS011;2275;52.208;8.804;2022-12-18T10:33:01;28.40;;;15.40;;
4525;SDS011;2275;52.208;8.804;2022-12-18T10:35:28;26.42;;;12.43;;
4525;SDS011;2275;52.208;8.804;2022-12-18T10:38:01;26.37;;;12.13;;
4525;SDS011;2275;52.208;8.804;2022-12-18T10:40:31;21.27;;;10.68;;
4525;SDS011;2275;52.208;8.804;2022-12-18T10:43:09;19.75;;;10.50;;
4525;SDS011;2275;52.208;8.804;2022-12-18T10:45:32;15.63;;;8.00;;
4525;SDS011;2275;52.208;8.804;2022-12-18T10:47:59;15.60;;;7.85;;
4525;SDS011;2275;52.208;8.804;2022-12-18T10:50:29;16.10;;;7.10;;
4525;SDS011;2275;52.208;8.804;2022-12-18T10:52:57;27.08;;;8.70;;
4525;SDS011;2275;52.208;8.804;2022-12-18T10:55:24;18.45;;;8.13;;
4525;SDS011;2275;52.208;8.804;2022-12-18T10:57:50;17.00;;;7.80;;
4525;SDS011;2275;52.208;8.804;2022-12-18T11:00:23;24.40;;;7.70;;
4525;SDS011;2275;52.208;8.804;2022-12-18T11:02:57;16.00;;;8.20;;
4525;SDS011;2275;52.208;8.804;2022-12-18T11:05:27;15.23;;;7.70;;
4525;SDS011;2275;52.208;8.804;2022-12-18T11:07:55;16.05;;;7.90;;
4525;SDS011;2275;52.208;8.804;2022-12-18T11:10:28;19.48;;;10.00;;
4525;SDS011;2275;52.208;8.804;2022-12-18T11:15:39;15.77;;;7.55;;
4525;SDS011;2275;52.208;8.804;2022-12-18T11:18:14;19.73;;;8.43;;
4525;SDS011;2275;52.208;8.804;2022-12-18T11:20:34;14.43;;;7.20;;
4525;SDS011;2275;52.208;8.804;2022-12-18T11:23:01;17.55;;;7.35;;
4525;SDS011;2275;52.208;8.804;2022-12-18T11:25:29;14.98;;;8.02;;
4525;SDS011;2275;52.208;8.804;2022-12-18T11:27:58;16.60;;;7.90;;
4525;SDS011;2275;52.208;8.804;2022-12-18T11:30:25;16.67;;;7.35;;
4525;SDS011;2275;52.208;8.804;2022-12-18T11:32:56;13.98;;;6.80;;
4525;SDS011;2275;52.208;8.804;2022-12-18T11:35:32;19.75;;;8.02;;
4525;SDS011;2275;52.208;8.804;2022-12-18T11:37:57;13.13;;;6.70;;
4525;SDS011;2275;52.208;8.804;2022-12-18T11:40:40;17.45;;;7.62;;
4525;SDS011;2275;52.208;8.804;2022-12-18T11:43:08;13.77;;;6.95;;
4525;SDS011;2275;52.208;8.804;2022-12-18T11:45:34;16.65;;;9.00;;
4525;SDS011;2275;52.208;8.804;2022-12-18T11:48:04;13.35;;;7.62;;
4525;SDS011;2275;52.208;8.804;2022-12-18T11:50:32;15.43;;;7.97;;
4525;SDS011;2275;52.208;8.804;2022-12-18T11:53:12;16.77;;;8.27;;
4525;SDS011;2275;52.208;8.804;2022-12-18T11:55:41;17.05;;;7.62;;
4525;SDS011;2275;52.208;8.804;2022-12-18T11:58:57;16.02;;;7.80;;
4525;SDS011;2275;52.208;8.804;2022-12-18T12:01:14;20.10;;;8.63;;
4525;SDS011;2275;52.208;8.804;2022-12-18T12:03:53;17.00;;;7.55;;
4525;SDS011;2275;52.208;8.804;2022-12-18T12:06:36;12.90;;;7.50;;
4525;SDS011;2275;52.208;8.804;2022-12-18T12:09:12;15.07;;;7.20;;
4525;SDS011;2275;52.208;8.804;2022-12-18T12:11:48;22.40;;;8.07;;
4525;SDS011;2275;52.208;8.804;2022-12-18T12:14:22;14.68;;;7.72;;
4525;SDS011;2275;52.208;8.804;2022-12-18T12:16:54;15.27;;;7.87;;
4525;SDS011;2275;52.208;8.804;2022-12-18T12:19:28;16.85;;;8.10;;
4525;SDS011;2275;52.208;8.804;2022-12-18T12:22:00;14.95;;;7.65;;
4525;SDS011;2275;52.208;8.804;2022-12-18T12:24:38;20.35;;;8.95;;
4525;SDS011;2275;52.208;8.804;2022-12-18T12:27:16;18.75;;;8.18;;
4525;SDS011;2275;52.208;8.804;2022-12-18T12:29:50;15.50;;;8.43;;
4525;SDS011;2275;52.208;8.804;2022-12-18T12:32:25;19.05;;;8.32;;
4525;SDS011;2275;52.208;8.804;2022-12-18T12:35:07;15.40;;;7.95;;
4525;SDS011;2275;52.208;8.804;2022-12-18T12:37:25;13.45;;;7.30;;
4525;SDS011;2275;52.208;8.804;2022-12-18T12:40:00;17.95;;;8.30;;
4525;SDS011;2275;52.208;8.804;2022-12-18T12:42:31;14.63;;;7.50;;
4525;SDS011;2275;52.208;8.804;2022-12-18T12:45:03;20.30;;;8.63;;
4525;SDS011;2275;52.208;8.804;2022-12-18T12:47:31;17.17;;;8.20;;
4525;SDS011;2275;52.208;8.804;2022-12-18T12:49:58;17.30;;;8.50;;
4525;SDS011;2275;52.208;8.804;2022-12-18T12:52:32;18.90;;;8.13;;
4525;SDS011;2275;52.208;8.804;2022-12-18T12:55:16;16.98;;;8.18;;
4525;SDS011;2275;52.208;8.804;2022-12-18T12:57:45;18.48;;;8.63;;
4525;SDS011;2275;52.208;8.804;2022-12-18T13:00:13;22.83;;;8.57;;
4525;SDS011;2275;52.208;8.804;2022-12-18T13:02:46;18.23;;;7.93;;
4525;SDS011;2275;52.208;8.804;2022-12-18T13:05:16;18.87;;;8.05;;
4525;SDS011;2275;52.208;8.804;2022-12-18T13:07:59;19.52;;;8.10;;
4525;SDS011;2275;52.208;8.804;2022-12-18T13:10:28;18.80;;;8.90;;
4525;SDS011;2275;52.208;8.804;2022-12-18T13:12:53;18.33;;;9.55;;
4525;SDS011;2275;52.208;8.804;2022-12-18T13:15:24;17.98;;;8.38;;
4525;SDS011;2275;52.208;8.804;2022-12-18T13:18:11;18.23;;;8.00;;
4525;SDS011;2275;52.208;8.804;2022-12-18T13:20:37;22.08;;;8.98;;
4525;SDS011;2275;52.208;8.804;2022-12-18T13:25:46;15.50;;;8.52;;
4525;SDS011;2275;52.208;8.804;2022-12-18T13:28:13;15.50;;;8.35;;
4525;SDS011;2275;52.208;8.804;2022-12-18T13:30:44;18.00;;;9.45;;
4525;SDS011;2275;52.208;8.804;2022-12-18T13:33:45;18.35;;;8.45;;
4525;SDS011;2275;52.208;8.804;2022-12-18T13:36:01;20.15;;;9.98;;
4525;SDS011;2275;52.208;8.804;2022-12-18T13:38:34;19.65;;;9.43;;
4525;SDS011;2275;52.208;8.804;2022-12-18T13:41:02;19.37;;;8.35;;
4525;SDS011;2275;52.208;8.804;2022-12-18T13:43:48;17.87;;;8.45;;
4525;SDS011;2275;52.208;8.804;2022-12-18T13:46:20;18.62;;;8.68;;
4525;SDS011;2275;52.208;8.804;2022-12-18T13:48:50;15.52;;;8.45;;
4525;SDS011;2275;52.208;8.804;2022-12-18T13:51:16;18.73;;;8.52;;
4525;SDS011;2275;52.208;8.804;2022-12-18T13:53:43;17.52;;;8.85;;
4525;SDS011;2275;52.208;8.804;2022-12-18T13:56:09;18.98;;;8.88;;
4525;SDS011;2275;52.208;8.804;2022-12-18T13:58:36;20.10;;;9.10;;
4525;SDS011;2275;52.208;8.804;2022-12-18T14:01:03;14.55;;;7.80;;
4525;SDS011;2275;52.208;8.804;2022-12-18T14:03:30;18.25;;;8.38;;
4525;SDS011;2275;52.208;8.804;2022-12-18T14:05:59;16.98;;;8.85;;
4525;SDS011;2275;52.208;8.804;2022-12-18T14:08:25;16.40;;;7.55;;
4525;SDS011;2275;52.208;8.804;2022-12-18T14:10:53;16.90;;;7.87;;
4525;SDS011;2275;52.208;8.804;2022-12-18T14:13:23;19.30;;;7.93;;
4525;SDS011;2275;52.208;8.804;2022-12-18T14:15:48;17.95;;;8.48;;
4525;SDS011;2275;52.208;8.804;2022-12-18T14:20:51;18.27;;;9.02;;
4525;SDS011;2275;52.208;8.804;2022-12-18T14:25:53;17.35;;;8.25;;
4525;SDS011;2275;52.208;8.804;2022-12-18T14:28:22;16.80;;;9.02;;
4525;SDS011;2275;52.208;8.804;2022-12-18T14:30:49;19.77;;;9.15;;
4525;SDS011;2275;52.208;8.804;2022-12-18T14:33:16;21.27;;;8.70;;
4525;SDS011;2275;52.208;8.804;2022-12-18T14:38:23;15.60;;;8.30;;
4525;SDS011;2275;52.208;8.804;2022-12-18T14:40:53;21.98;;;9.25;;
4525;SDS011;2275;52.208;8.804;2022-12-18T14:43:35;17.45;;;8.32;;
4525;SDS011;2275;52.208;8.804;2022-12-18T14:46:02;18.17;;;8.57;;
4525;SDS011;2275;52.208;8.804;2022-12-18T14:48:33;17.00;;;8.50;;
4525;SDS011;2275;52.208;8.804;2022-12-18T14:51:21;22.58;;;8.73;;
4525;SDS011;2275;52.208;8.804;2022-12-18T14:53:47;21.25;;;8.63;;
4525;SDS011;2275;52.208;8.804;2022-12-18T14:56:30;19.77;;;8.95;;
4525;SDS011;2275;52.208;8.804;2022-12-18T14:59:00;17.30;;;8.13;;
4525;SDS011;2275;52.208;8.804;2022-12-18T15:01:30;20.80;;;8.20;;
4525;SDS011;2275;52.208;8.804;2022-12-18T15:03:58;17.45;;;9.50;;
4525;SDS011;2275;52.208;8.804;2022-12-18T15:06:29;19.58;;;9.45;;
4525;SDS011;2275;52.208;8.804;2022-12-18T15:08:56;17.45;;;8.43;;
4525;SDS011;2275;52.208;8.804;2022-12-18T15:11:26;114.62;;;46.50;;
4525;SDS011;2275;52.208;8.804;2022-12-18T15:13:56;27.45;;;13.10;;
4525;SDS011;2275;52.208;8.804;2022-12-18T15:16:23;22.70;;;11.00;;
4525;SDS011;2275;52.208;8.804;2022-12-18T15:18:50;27.77;;;11.88;;
4525;SDS011;2275;52.208;8.804;2022-12-18T15:21:18;23.23;;;9.57;;
4525;SDS011;2275;52.208;8.804;2022-12-18T15:23:48;18.25;;;9.32;;